Data for 01/10/2007

Time Sea-Level Adjusted Pressure Absolute Pressure Temperature Relative Humidity Dew Point   
(mb) (inHg) (mb) (inHg) (C) (F) (%) (C) (F)
00:05 1007 29.74 836 24.69 6.4 43.5 39 -6.6 20.1
00:10 1007 29.74 836 24.69 5.6 42.1 39 -7.2 19
00:15 1007 29.74 836 24.69 5.7 42.2 41 -6.7 19.9
00:20 1007 29.74 836 24.69 5.5 41.8 41 -6.9 19.6
00:25 1007 29.74 836 24.69 5.5 41.9 40 -7.2 19.1
00:30 1007 29.74 836 24.69 5.7 42.2 41 -6.5 20.2
00:35 1006 29.71 836 24.69 5.7 42.3 38 -7.4 18.7
00:40 1006 29.71 835 24.66 6.1 43 36 -7.8 18
00:45 1006 29.71 835 24.66 6.1 43 36 -8 17.6
00:50 1006 29.71 835 24.66 5.8 42.4 39 -7.2 19
00:55 1006 29.71 835 24.66 5.2 41.4 40 -7.2 19.1
01:00 1006 29.71 835 24.66 4.9 40.9 42 -7.1 19.2
01:05 1006 29.71 835 24.66 4.7 40.4 42 -7.1 19.2
01:10 1006 29.71 835 24.66 4.7 40.5 41 -7.3 18.8
01:15 1005 29.68 835 24.66 4.9 40.8 42 -7.1 19.2
01:20 1005 29.68 834 24.63 4.5 40.1 43 -7.2 19.1
01:25 1005 29.68 834 24.63 4.5 40.1 42 -7.4 18.6
01:30 1005 29.68 834 24.63 4.5 40.1 42 -7.2 19
01:35 1005 29.68 834 24.63 4.6 40.3 40 -7.9 17.7
01:40 1005 29.68 834 24.63 5.2 41.4 35 -9.2 15.4
01:45 1005 29.68 834 24.63 6.4 43.4 33 -8.6 16.5
01:50 1005 29.68 834 24.63 6.2 43.1 36 -8 17.7
01:55 1005 29.68 834 24.63 5.8 42.4 36 -8 17.6
02:00 1005 29.68 834 24.63 5.6 42.1 38 -7.6 18.3
02:05 1005 29.68 834 24.63 5.6 42.1 38 -7.7 18.2
02:10 1004 29.65 834 24.63 5.9 42.5 35 -8.5 16.7
02:15 1004 29.65 833 24.6 6.1 43 35 -8.1 17.5
02:20 1004 29.65 834 24.63 5.9 42.6 38 -7.4 18.7
02:25 1004 29.65 833 24.6 5.4 41.8 37 -8.2 17.2
02:30 1004 29.65 833 24.6 5.6 42 38 -7.7 18.1
02:35 1004 29.65 833 24.6 5.7 42.3 37 -8 17.6
02:40 1004 29.65 833 24.6 6 42.8 32 -9.5 15
02:45 1004 29.65 833 24.6 7.4 45.3 28 -10 14
02:50 1004 29.65 833 24.6 8 46.5 29 -9.1 15.6
02:55 1004 29.65 833 24.6 7.9 46.3 30 -8.7 16.4
03:00 1003 29.62 833 24.6 8 46.3 29 -9.1 15.6
03:05 1003 29.62 832 24.57 7.8 46.1 31 -8.2 17.3
03:10 1003 29.62 832 24.57 7.7 45.8 29 -9.2 15.4
03:15 1003 29.62 832 24.57 7.8 46 31 -8.2 17.3
03:20 1003 29.62 832 24.57 7.8 46.1 28 -9.8 14.4
03:25 1003 29.62 832 24.57 8.1 46.5 29 -8.9 16
03:30 1003 29.62 832 24.57 7.7 45.9 29 -9.3 15.3
03:35 1003 29.62 832 24.57 7.8 46 29 -9 15.8
03:40 1003 29.62 832 24.57 7.7 45.8 31 -8.6 16.5
03:45 1003 29.62 832 24.57 7.5 45.6 31 -8.6 16.6
03:50 1003 29.62 832 24.57 7.6 45.7 32 -8.2 17.3
03:55 1003 29.62 832 24.57 7.6 45.6 31 -8.3 17.1
04:00 1003 29.62 832 24.57 7.7 45.8 33 -7.8 18
04:05 1003 29.62 832 24.57 7.5 45.4 30 -9.1 15.6
04:10 1003 29.62 832 24.57 7.6 45.6 31 -8.3 17
04:15 1003 29.62 832 24.57 7.2 45 32 -8.4 16.9
04:20 1003 29.62 832 24.57 7.2 45 32 -8.3 17.1
04:25 1003 29.62 832 24.57 7.1 44.8 33 -7.9 17.8
04:30 1003 29.62 832 24.57 6.8 44.2 34 -7.9 17.8
04:35 1003 29.62 832 24.57 6.7 44.1 35 -7.7 18.2
04:40 1002 29.59 832 24.57 6.6 43.9 35 -7.6 18.3
04:45 1002 29.59 832 24.57 6.4 43.5 35 -7.8 18
04:50 1002 29.59 832 24.57 6.5 43.8 35 -7.9 17.9
04:55 1002 29.59 832 24.57 6.5 43.7 34 -8.1 17.4
05:00 1002 29.59 831 24.54 6.4 43.6 35 -7.8 17.9
05:05 1002 29.59 832 24.57 6.3 43.4 35 -7.9 17.8
05:10 1002 29.59 831 24.54 6.4 43.4 37 -7.4 18.7
05:15 1002 29.59 831 24.54 6 42.8 39 -6.8 19.8
05:20 1002 29.59 831 24.54 5.9 42.6 39 -6.9 19.6
05:25 1002 29.59 831 24.54 5.7 42.2 41 -6.7 19.9
05:30 1002 29.59 831 24.54 5.8 42.4 37 -7.8 18
05:35 1002 29.59 831 24.54 5.9 42.7 41 -6.5 20.3
05:40 1002 29.59 831 24.54 5.6 42 40 -6.9 19.6
05:45 1002 29.59 831 24.54 5.9 42.5 39 -7.2 19.1
05:50 1002 29.59 831 24.54 5.7 42.3 42 -6.3 20.6
05:55 1002 29.59 831 24.54 5.6 42 43 -6.2 20.9
06:00 1002 29.59 831 24.54 5.5 41.9 39 -7.4 18.7
06:05 1002 29.59 831 24.54 5.7 42.3 38 -7.4 18.6
06:10 1002 29.59 831 24.54 5.9 42.6 39 -6.9 19.6
06:15 1002 29.59 831 24.54 5.9 42.6 40 -6.8 19.7
06:20 1002 29.59 831 24.54 5.8 42.4 39 -7 19.4
06:25 1002 29.59 831 24.54 5.8 42.4 40 -6.8 19.8
06:30 1002 29.59 832 24.57 5.7 42.3 41 -6.6 20.2
06:35 1002 29.59 832 24.57 5.6 42.1 41 -6.7 19.9
06:40 1002 29.59 832 24.57 5.6 42.1 41 -6.5 20.3
06:45 1002 29.59 832 24.57 5.6 42 40 -6.9 19.7
06:50 1002 29.59 832 24.57 5.7 42.2 40 -6.8 19.8
06:55 1002 29.59 831 24.54 5.7 42.2 40 -7 19.3
07:00 1002 29.59 832 24.57 5.6 42.2 41 -6.7 19.9
07:05 1002 29.59 832 24.57 5.7 42.3 38 -7.4 18.7
07:10 1002 29.59 832 24.57 5.6 42.1 40 -6.8 19.7
07:15 1002 29.59 832 24.57 5.5 41.9 42 -6.5 20.3
07:20 1002 29.59 832 24.57 5.5 41.9 41 -6.8 19.8
07:25 1002 29.59 832 24.57 5.4 41.8 41 -6.7 20
07:30 1002 29.59 832 24.57 5.5 41.8 41 -6.9 19.6
07:35 1002 29.59 832 24.57 5.3 41.6 43 -6.3 20.7
07:40 1002 29.59 832 24.57 5.3 41.5 43 -6.4 20.5
07:45 1002 29.59 831 24.54 5.3 41.5 41 -6.9 19.5
07:50 1002 29.59 831 24.54 5.2 41.4 44 -6 21.3
07:55 1002 29.59 831 24.54 5.1 41.1 41 -7 19.4
08:00 1002 29.59 831 24.54 5.3 41.6 39 -7.4 18.7
08:05 1002 29.59 831 24.54 5.6 42 41 -6.8 19.7
08:10 1002 29.59 831 24.54 5.3 41.6 43 -6.4 20.5
08:15 1002 29.59 831 24.54 5.1 41.1 43 -6.6 20.1
08:20 1002 29.59 831 24.54 5.1 41.3 42 -6.7 20
08:25 1002 29.59 831 24.54 5.3 41.5 42 -6.6 20.1
08:30 1002 29.59 831 24.54 5.2 41.3 42 -6.8 19.7
08:35 1002 29.59 831 24.54 5.2 41.3 41 -6.9 19.5
08:40 1002 29.59 831 24.54 5.2 41.3 40 -7.2 19.1
08:45 1002 29.59 831 24.54 5.3 41.5 42 -6.7 20
08:50 1002 29.59 831 24.54 5.4 41.8 35 -9 15.8
08:55 1002 29.59 831 24.54 5.9 42.6 35 -8.6 16.5
09:00 1002 29.59 831 24.54 6 42.9 33 -8.9 15.9
09:05 1002 29.59 831 24.54 6 42.8 32 -9.4 15.2
09:10 1002 29.59 831 24.54 6.2 43.2 34 -8.6 16.5
09:15 1002 29.59 831 24.54 6 42.7 35 -8.4 16.8
09:20 1002 29.59 832 24.57 5.6 42.2 37 -7.9 17.7
09:25 1002 29.59 831 24.54 5.7 42.3 34 -9.1 15.7
09:30 1002 29.59 832 24.57 6 42.8 36 -8.1 17.4
09:35 1003 29.62 832 24.57 5.9 42.7 37 -7.8 18
09:40 1003 29.62 832 24.57 5.9 42.6 37 -7.7 18.1
09:45 1003 29.62 832 24.57 6 42.8 35 -8.2 17.3
09:50 1003 29.62 832 24.57 6.1 43 35 -8.2 17.2
09:55 1003 29.62 832 24.57 5.9 42.6 38 -7.3 18.9
10:00 1003 29.62 832 24.57 5.6 42.1 37 -8.1 17.4
10:05 1003 29.62 832 24.57 5.8 42.4 35 -8.6 16.6
10:10 1003 29.62 832 24.57 5.9 42.6 34 -8.7 16.3
10:15 1003 29.62 832 24.57 6 42.8 35 -8.4 16.9
10:20 1003 29.62 832 24.57 6.1 43 33 -9 15.8
10:25 1003 29.62 832 24.57 6.1 43 34 -8.5 16.6
10:30 1003 29.62 832 24.57 5.9 42.7 35 -8.4 16.9
10:35 1003 29.62 832 24.57 6 42.8 34 -8.6 16.5
10:40 1003 29.62 832 24.57 5.9 42.7 35 -8.3 17.1
10:45 1002 29.59 832 24.57 5.9 42.6 34 -8.8 16.2
10:50 1002 29.59 832 24.57 5.9 42.7 35 -8.4 17
10:55 1002 29.59 832 24.57 6.1 43 35 -8.2 17.2
11:00 1002 29.59 832 24.57 6.1 43 35 -8.4 17
11:05 1002 29.59 832 24.57 6 42.9 35 -8.4 16.9
11:10 1002 29.59 831 24.54 6.1 43 32 -9.4 15
11:15 1002 29.59 831 24.54 6.1 42.9 33 -8.9 15.9
11:20 1002 29.59 831 24.54 6 42.7 37 -7.7 18.1
11:25 1002 29.59 831 24.54 5.8 42.5 34 -8.8 16.2
11:30 1002 29.59 831 24.54 5.9 42.6 34 -8.8 16.2
11:35 1002 29.59 831 24.54 5.8 42.5 33 -9.2 15.5
11:40 1002 29.59 831 24.54 5.8 42.4 34 -8.9 16.1
11:45 1002 29.59 831 24.54 5.6 42.2 36 -8.3 17.1
11:50 1002 29.59 831 24.54 5.6 42 36 -8.4 16.8
11:55 1002 29.59 831 24.54 5.4 41.7 37 -8.1 17.5
12:00 1002 29.59 831 24.54 4.1 39.3 53 -4.8 23.4
12:05 1002 29.59 831 24.54 2.6 36.7 59 -4.7 23.5
12:10 1002 29.59 831 24.54 2 35.5 61 -4.7 23.6
12:15 1002 29.59 831 24.54 1.8 35.2 62 -4.7 23.6
12:20 1002 29.59 831 24.54 1.6 34.9 63 -4.7 23.6
12:25 1002 29.59 831 24.54 1.5 34.8 63 -4.7 23.5
12:30 1002 29.59 831 24.54 1.5 34.7 64 -4.6 23.8
12:35 1002 29.59 832 24.57 1.5 34.7 65 -4.3 24.2
12:40 1002 29.59 832 24.57 1 33.8 68 -4.3 24.3
12:45 1003 29.62 832 24.57 0.5 32.8 71 -4.3 24.3
12:50 1003 29.62 832 24.57 0.3 32.6 73 -4 24.9
12:55 1003 29.62 832 24.57 -0.3 31.5 79 -3.5 25.7
13:00 1003 29.62 832 24.57 -0.5 31.1 82 -3.3 26.1
13:05 1003 29.62 832 24.57 -0.7 30.7 85 -3 26.5
13:10 1003 29.62 832 24.57 -1.1 30 88 -2.9 26.7
13:15 1003 29.62 833 24.6 -1.3 29.6 89 -2.9 26.9
13:20 1004 29.65 833 24.6 -1.5 29.3 91 -2.8 27
13:25 1004 29.65 833 24.6 -1.5 29.3 92 -2.7 27.2
13:30 1004 29.65 833 24.6 -1.5 29.2 92 -2.7 27.1
13:35 1004 29.65 833 24.6 -1.6 29.1 91 -2.8 26.9
13:40 1004 29.65 833 24.6 -1.8 28.8 93 -2.7 27.1
13:45 1004 29.65 833 24.6 -1.9 28.5 94 -2.9 26.9
13:50 1004 29.65 833 24.6 -1.9 28.6 94 -2.8 27
13:55 1004 29.65 833 24.6 -2 28.5 93 -3 26.7
14:00 1004 29.65 833 24.6 -2.2 28.1 93 -3.1 26.3
14:05 1004 29.65 833 24.6 -2.3 27.9 93 -3.3 26.1
14:10 1004 29.65 833 24.6 -2.4 27.7 92 -3.4 25.8
14:15 1004 29.65 833 24.6 -2.5 27.5 92 -3.6 25.6
14:20 1004 29.65 834 24.63 -2.6 27.2 92 -3.7 25.3
14:25 1004 29.65 834 24.63 -2.7 27.2 92 -3.8 25.1
14:30 1004 29.65 834 24.63 -2.6 27.3 92 -3.7 25.3
14:35 1005 29.68 834 24.63 -2.6 27.3 92 -3.8 25.2
14:40 1005 29.68 834 24.63 -2.7 27.2 92 -3.8 25.2
14:45 1005 29.68 834 24.63 -2.6 27.3 91 -3.9 25
14:50 1005 29.68 834 24.63 -2.6 27.4 91 -3.9 25
14:55 1005 29.68 834 24.63 -2.6 27.2 91 -3.9 24.9
15:00 1005 29.68 834 24.63 -2.7 27.2 91 -4 24.9
15:05 1005 29.68 834 24.63 -2.9 26.9 92 -4 24.9
15:10 1005 29.68 834 24.63 -2.9 26.7 91 -4.2 24.5
15:15 1005 29.68 834 24.63 -3.1 26.3 92 -4.3 24.3
15:20 1005 29.68 834 24.63 -3.2 26.3 92 -4.3 24.3
15:25 1005 29.68 834 24.63 -3.3 26.1 92 -4.3 24.2
15:30 1005 29.68 834 24.63 -3.3 26.1 92 -4.3 24.2
15:35 1005 29.68 834 24.63 -3.4 25.9 92 -4.5 23.8
15:40 1005 29.68 835 24.66 -3.5 25.6 93 -4.6 23.8
15:45 1006 29.71 835 24.66 -3.6 25.6 93 -4.6 23.7
15:50 1006 29.71 835 24.66 -3.7 25.4 92 -4.7 23.5
15:55 1006 29.71 835 24.66 -3.7 25.4 92 -4.8 23.3
16:00 1006 29.71 835 24.66 -3.8 25.2 91 -5 23
16:05 1006 29.71 835 24.66 -4.1 24.6 90 -5.4 22.2
16:10 1006 29.71 835 24.66 -4.4 24 89 -6 21.1
16:15 1006 29.71 835 24.66 -4.8 23.4 88 -6.4 20.5
16:20 1006 29.71 836 24.69 -5 23.1 89 -6.6 20.2
16:25 1006 29.71 836 24.69 -5 22.9 89 -6.6 20.1
16:30 1006 29.71 836 24.69 -5.1 22.9 89 -6.7 20
16:35 1007 29.74 836 24.69 -5.1 22.9 87 -6.8 19.7
16:40 1007 29.74 836 24.69 -5.1 22.8 88 -6.8 19.8
16:45 1007 29.74 836 24.69 -5.3 22.5 89 -6.8 19.7
16:50 1007 29.74 836 24.69 -5.4 22.3 89 -6.9 19.6
16:55 1007 29.74 836 24.69 -5.4 22.2 88 -7.2 19.1
17:00 1007 29.74 836 24.69 -5.6 21.9 87 -7.5 18.5
17:05 1007 29.74 837 24.72 -5.8 21.5 87 -7.6 18.3
17:10 1007 29.74 837 24.72 -6 21.3 89 -7.5 18.4
17:15 1007 29.74 837 24.72 -5.9 21.3 88 -7.6 18.3
17:20 1007 29.74 837 24.72 -6 21.3 87 -7.8 18
17:25 1008 29.77 837 24.72 -6 21.2 86 -8 17.7
17:30 1008 29.77 837 24.72 -6 21.3 85 -8.1 17.4
17:35 1008 29.77 837 24.72 -6.1 21 84 -8.5 16.8
17:40 1008 29.77 837 24.72 -6.1 20.9 82 -8.7 16.4
17:45 1008 29.77 837 24.72 -6.1 20.9 84 -8.5 16.7
17:50 1008 29.77 837 24.72 -6.1 21 83 -8.6 16.5
17:55 1008 29.77 837 24.72 -6.1 21 81 -8.9 16
18:00 1008 29.77 837 24.72 -6.2 20.8 81 -9 15.8
18:05 1008 29.77 837 24.72 -6.3 20.7 83 -8.8 16.2
18:10 1008 29.77 837 24.72 -6.5 20.2 85 -8.6 16.5
18:15 1008 29.77 837 24.72 -7 19.4 88 -8.7 16.4
18:20 1008 29.77 837 24.72 -7.3 18.9 88 -9 15.8
18:25 1008 29.77 837 24.72 -7.3 18.8 86 -9.2 15.4
18:30 1008 29.77 837 24.72 -7.1 19.2 85 -9.2 15.4
18:35 1008 29.77 837 24.72 -7 19.5 83 -9.4 15.1
18:40 1008 29.77 837 24.72 -7 19.4 81 -9.7 14.6
18:45 1008 29.77 837 24.72 -6.9 19.6 81 -9.7 14.6
18:50 1008 29.77 837 24.72 -6.8 19.7 80 -9.8 14.4
18:55 1008 29.77 837 24.72 -6.7 19.9 77 -10.1 13.9
19:00 1008 29.77 837 24.72 -6.8 19.8 79 -9.8 14.3
19:05 1008 29.77 837 24.72 -6.6 20.1 77 -10 14
19:10 1008 29.77 837 24.72 -6.8 19.7 79 -9.9 14.2
19:15 1008 29.77 837 24.72 -7.1 19.3 75 -10.8 12.6
19:20 1008 29.77 837 24.72 -6.9 19.6 78 -10.1 13.8
19:25 1008 29.77 837 24.72 -7.1 19.2 78 -10.3 13.4
19:30 1008 29.77 837 24.72 -7.1 19.3 76 -10.6 13
19:35 1008 29.77 837 24.72 -7 19.4 76 -10.5 13.2
19:40 1008 29.77 837 24.72 -7.1 19.3 76 -10.6 13
19:45 1008 29.77 837 24.72 -7.1 19.2 77 -10.4 13.2
19:50 1008 29.77 838 24.75 -7.1 19.2 78 -10.4 13.3
19:55 1008 29.77 838 24.75 -7.1 19.2 78 -10.4 13.3
20:00 1008 29.77 838 24.75 -7.2 19.1 76 -10.6 12.8
20:05 1008 29.77 838 24.75 -7.1 19.3 76 -10.6 13
20:10 1008 29.77 838 24.75 -7 19.5 76 -10.5 13
20:15 1008 29.77 838 24.75 -7.1 19.2 78 -10.3 13.5
20:20 1008 29.77 838 24.75 -7.2 19 80 -10.1 13.9
20:25 1009 29.8 838 24.75 -7.3 18.8 81 -10 14
20:30 1009 29.8 838 24.75 -7.3 18.9 82 -9.8 14.3
20:35 1009 29.8 838 24.75 -7.5 18.6 83 -9.8 14.3
20:40 1009 29.8 838 24.75 -7.5 18.5 84 -9.8 14.4
20:45 1009 29.8 838 24.75 -7.5 18.5 85 -9.6 14.7
20:50 1009 29.8 838 24.75 -7.3 18.8 85 -9.4 15.1
20:55 1009 29.8 838 24.75 -7.4 18.6 86 -9.4 15.2
21:00 1009 29.8 838 24.75 -7.4 18.6 87 -9.3 15.3
21:05 1009 29.8 838 24.75 -7.4 18.8 87 -9.1 15.5
21:10 1009 29.8 838 24.75 -7.5 18.6 88 -9.2 15.5
21:15 1009 29.8 838 24.75 -7.6 18.4 88 -9.1 15.5
21:20 1009 29.8 838 24.75 -7.6 18.3 88 -9.3 15.3
21:25 1009 29.8 838 24.75 -7.8 18 90 -9.2 15.5
21:30 1009 29.8 838 24.75 -7.6 18.2 88 -9.3 15.2
21:35 1009 29.8 838 24.75 -7.8 18 89 -9.3 15.3
21:40 1009 29.8 838 24.75 -7.8 17.9 89 -9.3 15.2
21:45 1008 29.77 838 24.75 -7.9 17.9 90 -9.3 15.3
21:50 1008 29.77 838 24.75 -7.8 18.1 90 -9.2 15.5
21:55 1008 29.77 838 24.75 -7.8 18 90 -9.1 15.5
22:00 1009 29.8 838 24.75 -7.8 18 91 -9 15.8
22:05 1009 29.8 838 24.75 -7.6 18.3 91 -8.9 16
22:10 1009 29.8 838 24.75 -7.6 18.4 89 -9 15.8
22:15 1009 29.8 838 24.75 -8 17.6 87 -9.8 14.3
22:20 1008 29.77 838 24.75 -8.8 16.2 89 -10.3 13.4
22:25 1008 29.77 838 24.75 -9.1 15.6 88 -10.7 12.7
22:30 1008 29.77 838 24.75 -9.3 15.2 87 -11.1 12
22:35 1009 29.8 838 24.75 -9.5 15 86 -11.3 11.6
22:40 1009 29.8 838 24.75 -9.5 14.9 87 -11.2 11.8
22:45 1009 29.8 838 24.75 -9.5 14.9 87 -11.2 11.8
22:50 1009 29.8 838 24.75 -9.4 15.2 88 -11 12.2
22:55 1009 29.8 838 24.75 -9.2 15.4 88 -10.8 12.5
23:00 1009 29.8 838 24.75 -9.3 15.2 88 -10.9 12.4
23:05 1009 29.8 838 24.75 -9.6 14.7 89 -11.1 12
23:10 1009 29.8 838 24.75 -9.9 14.3 90 -11.3 11.7
23:15 1009 29.8 838 24.75 -10.1 13.9 88 -11.7 11
23:20 1009 29.8 838 24.75 -10.1 13.8 85 -12.2 10
23:25 1009 29.8 838 24.75 -10.1 13.9 82 -12.6 9.3
23:30 1009 29.8 838 24.75 -10.3 13.5 83 -12.6 9.3
23:35 1009 29.8 839 24.78 -10.6 13 84 -12.8 9
23:40 1010 29.83 839 24.78 -11.2 11.9 84 -13.4 7.9
23:45 1010 29.83 839 24.78 -11.7 10.9 85 -13.8 7.1
23:50 1010 29.83 839 24.78 -12.2 10.1 85 -14.2 6.4
23:55 1009 29.8 839 24.78 -12.4 9.7 85 -14.5 6
24:00 1009 29.8 839 24.78 -12.6 9.3 85 -14.6 5.8